createdAt,value
2019-01-09T00:00:05.200Z,35.33
2019-01-09T00:00:52.186Z,35.68
2019-01-09T00:01:31.826Z,33.58
2019-01-09T00:02:07.514Z,35.25
2019-01-09T00:02:43.194Z,37.75
2019-01-09T00:03:18.903Z,33.25
2019-01-09T00:03:54.760Z,37.30
2019-01-09T00:04:31.027Z,34.67
2019-01-09T00:05:07.164Z,34.05
2019-01-09T00:05:42.721Z,36.90
2019-01-09T00:06:18.458Z,36.77
2019-01-09T00:06:53.995Z,38.90
2019-01-09T00:07:29.465Z,41.75
2019-01-09T00:08:05.202Z,38.33
2019-01-09T00:08:41.049Z,37.95
2019-01-09T00:09:16.636Z,40.58
2019-01-09T00:09:52.308Z,39.95
2019-01-09T00:10:28.169Z,34.85
2019-01-09T00:11:03.797Z,42.78
2019-01-09T00:11:39.417Z,40.25
2019-01-09T00:12:14.966Z,35.73
2019-01-09T00:12:50.888Z,36.30
2019-01-09T00:13:26.547Z,38.30
2019-01-09T00:14:02.148Z,38.30
2019-01-09T00:14:37.918Z,40.85
2019-01-09T00:15:13.818Z,34.20
2019-01-09T00:15:49.381Z,36.17
2019-01-09T00:16:25.071Z,39.85
2019-01-09T00:17:00.707Z,40.75
2019-01-09T00:17:36.524Z,40.40
2019-01-09T00:18:12.244Z,39.15
2019-01-09T00:18:47.809Z,39.15
2019-01-09T00:19:23.615Z,37.30
2019-01-09T00:19:59.747Z,39.00
2019-01-09T00:20:35.537Z,38.60
2019-01-09T00:21:11.234Z,37.25
2019-01-09T00:21:46.744Z,39.67
2019-01-09T00:22:22.698Z,35.17
2019-01-09T00:22:58.244Z,36.08
2019-01-09T00:23:33.874Z,36.75
2019-01-09T00:24:09.624Z,36.70
2019-01-09T00:24:45.624Z,38.50
2019-01-09T00:25:21.412Z,37.67
2019-01-09T00:25:57.189Z,36.30
2019-01-09T00:26:32.683Z,37.42
2019-01-09T00:27:08.673Z,39.30
2019-01-09T00:27:44.575Z,42.08
2019-01-09T00:28:20.103Z,38.10
2019-01-09T00:28:55.927Z,37.58
2019-01-09T00:29:31.929Z,39.20
2019-01-09T00:30:08.550Z,35.55
2019-01-09T00:30:44.485Z,38.80
2019-01-09T00:31:20.194Z,36.85
2019-01-09T00:31:55.766Z,34.60
2019-01-09T00:32:31.406Z,36.50
2019-01-09T00:33:07.049Z,38.88
2019-01-09T00:33:42.644Z,36.45
2019-01-09T00:34:18.396Z,36.23
2019-01-09T00:34:54.032Z,40.55
2019-01-09T00:35:37.241Z,38.63
2019-01-09T00:36:07.109Z,39.90
2019-01-09T00:36:43.010Z,41.05
2019-01-09T00:37:18.487Z,39.55
2019-01-09T00:37:54.391Z,34.95
2019-01-09T00:38:30.071Z,42.17
2019-01-09T00:39:07.151Z,40.03
2019-01-09T00:39:42.870Z,37.78
2019-01-09T00:40:18.631Z,39.70
2019-01-09T00:40:54.873Z,33.53
2019-01-09T00:41:30.594Z,37.20
2019-01-09T00:42:06.421Z,36.20
2019-01-09T00:42:42.009Z,37.05
2019-01-09T00:43:17.624Z,35.85
2019-01-09T00:43:53.284Z,39.33
2019-01-09T00:44:28.981Z,38.38
2019-01-09T00:45:05.158Z,36.25
2019-01-09T00:45:40.709Z,39.08
2019-01-09T00:46:16.416Z,40.35
2019-01-09T00:46:52.141Z,40.78
2019-01-09T00:47:27.799Z,37.58
2019-01-09T00:48:03.302Z,40.50
2019-01-09T00:48:39.000Z,39.85
2019-01-09T00:49:14.785Z,37.42
2019-01-09T00:49:50.960Z,37.63
2019-01-09T00:50:26.793Z,39.23
2019-01-09T00:51:02.618Z,39.40
2019-01-09T00:51:38.285Z,37.30
2019-01-09T00:52:14.036Z,39.42
2019-01-09T00:52:49.605Z,39.13
2019-01-09T00:53:25.268Z,40.10
2019-01-09T00:54:01.090Z,38.20
2019-01-09T00:54:36.913Z,40.45
2019-01-09T00:55:12.474Z,42.00
2019-01-09T00:55:48.112Z,39.65
2019-01-09T00:56:23.663Z,40.55
2019-01-09T00:56:59.391Z,37.85
2019-01-09T00:57:35.054Z,40.50
2019-01-09T00:58:10.891Z,39.98
2019-01-09T00:58:46.626Z,41.77
2019-01-09T00:59:22.468Z,39.18
2019-01-09T00:59:58.093Z,39.95
2019-01-09T01:00:33.850Z,39.98
2019-01-09T01:01:09.751Z,38.63
2019-01-09T01:01:50.932Z,42.98
2019-01-09T01:02:59.910Z,38.45
2019-01-09T01:04:15.207Z,37.03
2019-01-09T01:05:28.109Z,33.28
2019-01-09T01:06:21.656Z,33.23
2019-01-09T01:07:44.108Z,35.35
2019-01-09T01:09:06.742Z,35.83
2019-01-09T01:10:19.142Z,33.95
2019-01-09T01:11:33.469Z,32.17
2019-01-09T01:13:01.570Z,32.85
2019-01-09T01:14:03.705Z,32.45
2019-01-09T01:15:24.520Z,36.42
2019-01-09T01:16:46.211Z,33.65
2019-01-09T01:17:55.639Z,34.25
2019-01-09T01:19:07.729Z,33.42
2019-01-09T01:20:26.981Z,33.95
2019-01-09T01:21:18.369Z,33.02
2019-01-09T01:22:09.736Z,36.03
2019-01-09T01:23:25.921Z,37.58
2019-01-09T01:24:25.850Z,37.38
2019-01-09T01:25:26.901Z,36.15
2019-01-09T01:26:25.744Z,36.73
2019-01-09T01:27:32.085Z,42.35
2019-01-09T01:28:44.374Z,37.35
2019-01-09T01:30:18.761Z,38.15
2019-01-09T01:31:37.488Z,36.73
2019-01-09T01:32:54.282Z,35.88
2019-01-09T01:34:02.147Z,33.55
2019-01-09T01:35:14.917Z,36.30
2019-01-09T01:36:29.961Z,35.83
2019-01-09T01:37:40.947Z,36.33
2019-01-09T01:39:06.874Z,34.13
2019-01-09T01:40:10.565Z,37.45
2019-01-09T01:41:08.057Z,37.63
2019-01-09T01:42:36.381Z,34.92
2019-01-09T01:43:50.836Z,36.08
2019-01-09T01:44:54.648Z,38.17
2019-01-09T01:46:02.279Z,37.67
2019-01-09T01:47:11.939Z,37.73
2019-01-09T01:48:39.048Z,42.27
2019-01-09T01:49:32.559Z,39.83
2019-01-09T01:50:58.129Z,40.98
2019-01-09T01:52:07.119Z,32.17
2019-01-09T01:53:18.189Z,34.90
2019-01-09T01:54:18.951Z,37.67
2019-01-09T01:55:27.036Z,36.40
2019-01-09T01:56:35.357Z,39.70
2019-01-09T01:57:39.374Z,44.23
2019-01-09T01:59:00.958Z,36.98
2019-01-09T01:59:54.524Z,36.75
2019-01-09T02:01:01.336Z,35.92
2019-01-09T02:02:19.389Z,37.20
2019-01-09T02:03:23.210Z,37.48
2019-01-09T02:04:18.432Z,39.67
2019-01-09T02:05:14.651Z,35.08
2019-01-09T02:06:15.409Z,38.02
2019-01-09T02:07:44.135Z,36.17
2019-01-09T02:08:51.325Z,36.40
2019-01-09T02:10:02.894Z,38.20
2019-01-09T02:11:46.774Z,39.03
2019-01-09T02:12:51.827Z,38.65
2019-01-09T02:13:44.199Z,37.23
2019-01-09T02:15:11.374Z,39.85
2019-01-09T02:16:46.196Z,39.23
2019-01-09T02:17:37.541Z,37.88
2019-01-09T02:18:30.885Z,37.33
2019-01-09T02:19:20.660Z,40.05
2019-01-09T02:20:25.439Z,39.05
2019-01-09T02:21:47.874Z,40.43
2019-01-09T02:23:08.248Z,36.98
2019-01-09T02:24:11.428Z,39.05
2019-01-09T02:25:08.910Z,39.27
2019-01-09T02:26:23.117Z,37.63
2019-01-09T02:28:00.597Z,38.23
2019-01-09T02:29:02.070Z,35.80
2019-01-09T02:30:09.535Z,36.88
2019-01-09T02:31:37.731Z,38.78
2019-01-09T02:32:32.627Z,38.42
2019-01-09T02:33:08.366Z,42.13
2019-01-09T02:33:43.957Z,47.30
2019-01-09T02:34:19.690Z,43.48
2019-01-09T02:34:55.323Z,46.53
2019-01-09T02:35:30.935Z,49.98
2019-01-09T02:36:13.401Z,46.83
2019-01-09T02:36:43.864Z,46.02
2019-01-09T02:37:20.183Z,46.70
2019-01-09T02:37:56.071Z,48.48
2019-01-09T02:38:31.601Z,44.67
2019-01-09T02:39:07.850Z,46.75
2019-01-09T02:39:43.461Z,48.75
2019-01-09T02:40:19.154Z,44.20
2019-01-09T02:40:54.753Z,46.00
2019-01-09T02:41:30.364Z,46.42
2019-01-09T02:42:06.304Z,41.65
2019-01-09T02:42:42.835Z,49.58
2019-01-09T02:43:18.404Z,44.25
2019-01-09T02:43:54.316Z,47.23
2019-01-09T02:44:32.292Z,44.98
2019-01-09T02:45:08.193Z,43.00
2019-01-09T02:45:43.983Z,46.70
2019-01-09T02:46:20.238Z,43.92
2019-01-09T02:46:55.910Z,42.98
2019-01-09T02:47:31.673Z,45.00
2019-01-09T02:48:07.298Z,50.05
2019-01-09T02:48:42.795Z,46.35
2019-01-09T02:49:19.456Z,47.00
2019-01-09T02:49:55.107Z,45.83
2019-01-09T02:50:30.726Z,44.77
2019-01-09T02:51:06.355Z,48.30
2019-01-09T02:51:42.012Z,50.15
2019-01-09T02:52:17.717Z,47.45
2019-01-09T02:52:53.502Z,47.70
2019-01-09T02:53:29.239Z,45.58
2019-01-09T02:54:05.378Z,47.83
2019-01-09T02:54:40.985Z,44.83
2019-01-09T02:55:16.499Z,45.17
2019-01-09T02:55:52.017Z,43.45
2019-01-09T02:56:30.773Z,43.95
2019-01-09T02:57:06.437Z,42.30
2019-01-09T02:57:42.246Z,43.70
2019-01-09T02:58:17.869Z,42.50
2019-01-09T02:58:53.545Z,42.65
2019-01-09T02:59:29.261Z,40.85
2019-01-09T03:00:06.227Z,38.65
2019-01-09T03:00:42.035Z,41.40
2019-01-09T03:01:17.709Z,43.08
2019-01-09T03:01:53.838Z,43.38
2019-01-09T03:02:29.594Z,40.30
2019-01-09T03:03:05.234Z,45.43
2019-01-09T03:03:40.751Z,42.88
2019-01-09T03:04:16.280Z,43.02
2019-01-09T03:04:51.789Z,43.63
2019-01-09T03:05:27.560Z,46.42
2019-01-09T03:06:03.163Z,44.93
2019-01-09T03:06:38.715Z,42.35
2019-01-09T03:07:14.637Z,43.75
2019-01-09T03:07:50.288Z,41.68
2019-01-09T03:08:25.806Z,43.45
2019-01-09T03:09:01.248Z,42.50
2019-01-09T03:09:36.879Z,44.03
2019-01-09T03:10:12.778Z,40.55
2019-01-09T03:10:48.648Z,44.77
2019-01-09T03:11:24.363Z,43.55
2019-01-09T03:11:59.981Z,44.10
2019-01-09T03:12:36.282Z,45.35
2019-01-09T03:13:11.958Z,43.13
2019-01-09T03:13:47.830Z,45.52
2019-01-09T03:14:23.383Z,47.78
2019-01-09T03:14:59.167Z,45.05
2019-01-09T03:15:35.213Z,44.70
2019-01-09T03:16:11.950Z,43.33
2019-01-09T03:16:47.543Z,46.13
2019-01-09T03:17:23.283Z,43.98
2019-01-09T03:17:59.043Z,47.23
2019-01-09T03:18:34.700Z,44.42
2019-01-09T03:19:10.494Z,46.65
2019-01-09T03:19:46.923Z,47.27
2019-01-09T03:20:22.523Z,42.60
2019-01-09T03:20:58.214Z,44.08
2019-01-09T03:21:33.719Z,43.80
2019-01-09T03:22:09.254Z,46.23
2019-01-09T03:22:44.920Z,41.23
2019-01-09T03:23:20.493Z,45.85
2019-01-09T03:23:56.158Z,44.67
2019-01-09T03:24:31.898Z,48.80
2019-01-09T03:25:07.937Z,45.67
2019-01-09T03:25:43.523Z,47.00
2019-01-09T03:26:19.241Z,45.08
2019-01-09T03:26:55.009Z,45.75
2019-01-09T03:27:30.685Z,48.70
2019-01-09T03:28:06.323Z,45.78
2019-01-09T03:28:42.013Z,47.88
2019-01-09T03:29:17.687Z,44.23
2019-01-09T03:29:53.252Z,44.18
2019-01-09T03:30:28.836Z,48.95
2019-01-09T03:31:04.463Z,46.08
2019-01-09T03:31:40.206Z,48.17
2019-01-09T03:32:16.076Z,44.83
2019-01-09T03:32:51.920Z,49.42
2019-01-09T03:33:27.741Z,44.42
2019-01-09T03:34:03.569Z,45.85
2019-01-09T03:34:39.216Z,48.28
2019-01-09T03:35:15.007Z,51.37
2019-01-09T03:35:50.405Z,49.08
2019-01-09T03:36:32.556Z,51.08
2019-01-09T03:37:03.310Z,52.43
2019-01-09T03:37:38.915Z,49.10
2019-01-09T03:38:14.576Z,48.05
2019-01-09T03:38:50.279Z,49.23
2019-01-09T03:39:25.909Z,48.13
2019-01-09T03:40:01.677Z,47.27
2019-01-09T03:40:37.306Z,49.93
2019-01-09T03:41:13.237Z,47.03
2019-01-09T03:41:49.027Z,51.90
2019-01-09T03:42:24.698Z,48.55
2019-01-09T03:43:00.241Z,54.35
2019-01-09T03:43:35.977Z,50.43
2019-01-09T03:44:11.759Z,49.05
2019-01-09T03:44:47.357Z,46.77
2019-01-09T03:45:23.095Z,47.10
2019-01-09T03:45:59.080Z,48.45
2019-01-09T03:46:34.603Z,51.35
2019-01-09T03:47:10.202Z,52.00
2019-01-09T03:47:45.779Z,52.50
2019-01-09T03:48:21.346Z,56.30
2019-01-09T03:48:56.934Z,54.27
2019-01-09T03:49:32.587Z,52.95
2019-01-09T03:50:08.972Z,57.30
2019-01-09T03:50:44.661Z,55.83
2019-01-09T03:51:20.598Z,59.00
2019-01-09T03:51:56.217Z,51.50
2019-01-09T03:52:31.843Z,54.75
2019-01-09T03:53:07.604Z,51.37
2019-01-09T03:53:43.441Z,56.65
2019-01-09T03:54:18.979Z,55.45
2019-01-09T03:54:54.699Z,58.00
2019-01-09T03:55:30.342Z,53.98
2019-01-09T03:56:05.946Z,53.98
2019-01-09T03:56:41.503Z,54.83
2019-01-09T03:57:17.239Z,48.08
2019-01-09T03:57:52.872Z,47.33
2019-01-09T03:58:28.395Z,57.88
2019-01-09T03:59:04.006Z,59.30
2019-01-09T03:59:39.581Z,53.25
2019-01-09T04:00:15.111Z,58.13
2019-01-09T04:00:50.819Z,59.42
2019-01-09T04:01:26.336Z,59.25
2019-01-09T04:02:01.982Z,61.37
2019-01-09T04:02:37.977Z,49.35
2019-01-09T04:03:13.583Z,49.67
2019-01-09T04:03:49.238Z,52.15
2019-01-09T04:04:25.100Z,53.87
2019-01-09T04:05:00.733Z,54.75
2019-01-09T04:06:53.732Z,48.70
2019-01-09T04:07:29.350Z,56.77
2019-01-09T04:08:05.073Z,55.75
2019-01-09T04:08:41.145Z,56.02
2019-01-09T04:09:16.983Z,55.65
2019-01-09T04:09:52.712Z,58.63
2019-01-09T04:10:28.583Z,58.15
2019-01-09T04:11:04.497Z,59.23
2019-01-09T04:11:40.523Z,58.33
2019-01-09T04:12:16.669Z,64.12
2019-01-09T04:12:52.606Z,54.40
2019-01-09T04:13:28.427Z,57.85
2019-01-09T04:14:04.406Z,53.65
2019-01-09T04:14:40.305Z,55.63
2019-01-09T04:15:16.385Z,55.85
2019-01-09T04:15:52.223Z,55.05
2019-01-09T04:16:28.305Z,53.85
2019-01-09T04:17:04.068Z,55.98
2019-01-09T04:17:40.049Z,55.00
2019-01-09T04:18:15.800Z,51.18
2019-01-09T04:18:52.435Z,52.25
2019-01-09T04:19:28.587Z,51.75
2019-01-09T04:20:04.557Z,51.08
2019-01-09T04:20:40.292Z,56.83
2019-01-09T04:21:16.134Z,51.55
2019-01-09T04:21:51.936Z,60.65
2019-01-09T04:22:28.307Z,59.08
2019-01-09T04:23:04.463Z,58.42
2019-01-09T04:23:40.469Z,55.73
2019-01-09T04:24:16.270Z,63.70
2019-01-09T04:24:52.031Z,58.92
2019-01-09T04:25:27.734Z,65.10
2019-01-09T04:26:03.499Z,59.93
2019-01-09T04:26:39.469Z,58.28
2019-01-09T04:27:15.418Z,57.95
2019-01-09T04:27:51.350Z,54.85
2019-01-09T04:28:26.901Z,57.05
2019-01-09T04:29:02.884Z,57.27
2019-01-09T04:29:39.112Z,59.77
2019-01-09T04:30:14.944Z,61.88
2019-01-09T04:30:50.866Z,56.18
2019-01-09T04:31:26.647Z,57.08
2019-01-09T04:32:02.355Z,61.35
2019-01-09T04:32:38.127Z,63.00
2019-01-09T04:33:13.792Z,63.90
2019-01-09T04:33:49.842Z,64.20
2019-01-09T04:34:25.136Z,63.65
2019-01-09T04:35:00.611Z,62.08
2019-01-09T04:35:35.906Z,58.90
2019-01-09T04:36:11.173Z,62.10
2019-01-09T04:36:51.338Z,58.25
2019-01-09T04:37:23.466Z,79.00
2019-01-09T04:37:58.908Z,67.78
2019-01-09T04:38:34.726Z,65.30
2019-01-09T04:39:10.040Z,64.07
2019-01-09T04:39:45.838Z,61.75
2019-01-09T04:40:21.250Z,59.20
2019-01-09T04:40:56.724Z,62.58
2019-01-09T04:41:32.095Z,60.38
2019-01-09T04:42:07.556Z,59.88
2019-01-09T04:42:43.062Z,59.10
2019-01-09T04:43:18.857Z,62.88
2019-01-09T04:43:54.426Z,61.28
2019-01-09T04:44:30.051Z,65.35
2019-01-09T04:45:05.718Z,64.20
2019-01-09T04:45:41.658Z,69.25
2019-01-09T04:46:17.186Z,59.90
2019-01-09T04:46:53.008Z,54.90
2019-01-09T04:47:28.446Z,63.23
2019-01-09T04:48:03.882Z,63.60
2019-01-09T04:48:39.404Z,60.05
2019-01-09T04:49:14.774Z,67.00
2019-01-09T04:49:50.269Z,64.80
2019-01-09T04:50:25.956Z,63.65
2019-01-09T04:51:01.835Z,68.02
2019-01-09T04:51:37.207Z,65.12
2019-01-09T04:52:12.634Z,62.95
2019-01-09T04:52:48.046Z,62.78
2019-01-09T04:53:23.382Z,63.15
2019-01-09T04:53:59.469Z,71.77
2019-01-09T04:54:35.056Z,62.67
2019-01-09T04:55:10.683Z,59.85
2019-01-09T04:55:46.064Z,63.83
2019-01-09T04:56:21.609Z,68.70
2019-01-09T04:56:57.086Z,64.60
2019-01-09T04:57:32.516Z,65.62
2019-01-09T04:58:07.843Z,63.68
2019-01-09T04:58:43.408Z,64.25
2019-01-09T04:59:18.833Z,66.77
2019-01-09T04:59:54.455Z,73.47
2019-01-09T05:00:30.066Z,70.62
2019-01-09T05:01:05.519Z,64.55
2019-01-09T05:01:40.966Z,58.38
2019-01-09T05:02:16.478Z,63.23
2019-01-09T05:02:51.972Z,62.98
2019-01-09T05:03:27.452Z,65.70
2019-01-09T05:04:02.890Z,65.40
2019-01-09T05:04:38.423Z,66.72
2019-01-09T05:05:13.941Z,66.42
2019-01-09T05:05:49.573Z,75.35
2019-01-09T05:06:25.120Z,75.87
2019-01-09T05:07:01.003Z,71.37
2019-01-09T05:07:36.719Z,68.02
2019-01-09T05:08:12.119Z,71.70
2019-01-09T05:08:47.746Z,61.85
2019-01-09T05:09:23.356Z,64.40
2019-01-09T05:09:58.801Z,68.42
2019-01-09T05:10:34.230Z,62.15
2019-01-09T05:11:09.691Z,69.80
2019-01-09T05:11:45.098Z,69.62
2019-01-09T05:12:20.672Z,70.95
2019-01-09T05:12:56.244Z,66.35
2019-01-09T05:13:32.014Z,71.57
2019-01-09T05:14:07.690Z,70.00
2019-01-09T05:14:43.206Z,70.80
2019-01-09T05:15:18.715Z,64.25
2019-01-09T05:15:54.267Z,67.85
2019-01-09T05:16:29.933Z,68.37
2019-01-09T05:17:05.460Z,69.30
2019-01-09T05:17:41.539Z,69.50
2019-01-09T05:18:17.003Z,75.10
2019-01-09T05:18:52.482Z,75.25
2019-01-09T05:19:27.988Z,67.60
2019-01-09T05:20:03.607Z,67.40
2019-01-09T05:20:39.208Z,73.60
2019-01-09T05:21:14.641Z,70.35
2019-01-09T05:21:50.209Z,65.95
2019-01-09T05:22:25.623Z,70.83
2019-01-09T05:23:01.194Z,67.82
2019-01-09T05:23:36.813Z,72.40
2019-01-09T05:24:12.160Z,75.55
2019-01-09T05:24:47.620Z,71.77
2019-01-09T05:25:23.587Z,77.08
2019-01-09T05:25:59.428Z,69.67
2019-01-09T05:26:34.877Z,76.42
2019-01-09T05:27:10.428Z,65.20
2019-01-09T05:27:46.036Z,76.50
2019-01-09T05:28:21.559Z,63.00
2019-01-09T05:28:56.889Z,63.45
2019-01-09T05:29:32.332Z,66.85
2019-01-09T05:30:07.831Z,70.60
2019-01-09T05:30:43.287Z,69.77
2019-01-09T05:31:18.723Z,73.87
2019-01-09T05:31:54.166Z,67.20
2019-01-09T05:32:29.574Z,67.03
2019-01-09T05:33:04.912Z,74.32
2019-01-09T05:33:40.448Z,74.37
2019-01-09T05:34:16.285Z,70.17
2019-01-09T05:34:51.770Z,74.12
2019-01-09T05:35:27.346Z,70.35
2019-01-09T05:36:02.882Z,65.65
2019-01-09T05:36:38.230Z,66.95
2019-01-09T05:37:13.650Z,69.25
2019-01-09T05:37:49.126Z,76.50
2019-01-09T05:38:24.624Z,73.47
2019-01-09T05:39:00.250Z,74.67
2019-01-09T05:39:39.731Z,74.27
2019-01-09T05:40:12.950Z,76.37
2019-01-09T05:40:48.580Z,83.80
2019-01-09T05:41:24.538Z,86.60
2019-01-09T05:42:00.068Z,70.08
2019-01-09T05:42:35.579Z,67.95
2019-01-09T05:43:11.129Z,60.48
2019-01-09T05:43:46.458Z,66.45
2019-01-09T05:44:22.008Z,76.72
2019-01-09T05:44:57.855Z,71.55
2019-01-09T05:45:33.586Z,70.05
2019-01-09T05:46:09.171Z,67.90
2019-01-09T05:46:44.637Z,70.52
2019-01-09T05:47:20.088Z,70.10
2019-01-09T05:47:55.659Z,82.05
2019-01-09T05:48:31.139Z,75.03
2019-01-09T05:49:06.448Z,71.95
2019-01-09T05:49:41.981Z,79.70
2019-01-09T05:50:17.421Z,86.02
2019-01-09T05:50:52.814Z,78.85
2019-01-09T05:51:28.282Z,81.45
2019-01-09T05:52:03.697Z,76.62
2019-01-09T05:52:39.045Z,73.22
2019-01-09T05:53:14.461Z,70.75
2019-01-09T05:53:50.059Z,84.22
2019-01-09T05:54:25.553Z,73.85
2019-01-09T05:55:01.060Z,79.72
2019-01-09T05:55:36.508Z,81.42
2019-01-09T05:56:12.121Z,82.97
2019-01-09T05:56:47.780Z,74.97
2019-01-09T05:57:23.236Z,72.37
2019-01-09T05:57:58.740Z,79.45
2019-01-09T05:58:34.230Z,74.67
2019-01-09T05:59:09.758Z,77.75
2019-01-09T05:59:45.225Z,84.65
2019-01-09T06:00:20.953Z,74.53
2019-01-09T06:00:56.544Z,69.97
2019-01-09T06:01:32.031Z,75.87
2019-01-09T06:02:07.635Z,70.70
2019-01-09T06:02:43.255Z,78.85
2019-01-09T06:03:18.619Z,72.17
2019-01-09T06:03:54.240Z,73.22
2019-01-09T06:04:29.584Z,72.15
2019-01-09T06:05:05.120Z,77.55
2019-01-09T06:05:40.519Z,80.92
2019-01-09T06:06:16.000Z,78.92
2019-01-09T06:06:51.451Z,67.30
2019-01-09T06:07:27.111Z,66.90
2019-01-09T06:08:02.474Z,66.45
2019-01-09T06:08:37.926Z,63.65
2019-01-09T06:09:13.180Z,66.65
2019-01-09T06:09:48.589Z,65.95
2019-01-09T06:10:23.859Z,59.40
2019-01-09T06:10:59.462Z,66.30
2019-01-09T06:11:34.980Z,62.85
2019-01-09T06:12:10.379Z,64.77
2019-01-09T06:12:45.948Z,74.27
2019-01-09T06:13:21.445Z,62.33
2019-01-09T06:13:56.983Z,69.05
2019-01-09T06:14:32.511Z,69.97
2019-01-09T06:15:08.794Z,66.35
2019-01-09T06:15:44.480Z,69.30
2019-01-09T06:16:19.961Z,61.42
2019-01-09T06:16:55.505Z,61.75
2019-01-09T06:17:31.012Z,63.50
2019-01-09T06:18:06.432Z,69.47
2019-01-09T06:18:41.730Z,63.92
2019-01-09T06:19:17.254Z,71.42
2019-01-09T06:19:52.801Z,73.15
2019-01-09T06:20:28.437Z,63.92
2019-01-09T06:21:04.118Z,71.37
2019-01-09T06:21:39.536Z,70.40
2019-01-09T06:22:15.083Z,71.22
2019-01-09T06:22:50.691Z,68.72
2019-01-09T06:23:26.402Z,66.65
2019-01-09T06:24:02.275Z,77.10
2019-01-09T06:24:37.815Z,79.47
2019-01-09T06:25:13.254Z,85.62
2019-01-09T06:25:48.830Z,85.62
2019-01-09T06:26:24.410Z,80.12
2019-01-09T06:26:59.972Z,78.72
2019-01-09T06:27:35.472Z,80.85
2019-01-09T06:28:10.961Z,69.05
2019-01-09T06:28:46.733Z,82.50
2019-01-09T06:29:22.394Z,82.20
2019-01-09T06:29:58.049Z,86.60
2019-01-09T06:30:33.728Z,84.47
2019-01-09T06:31:09.324Z,86.22
2019-01-09T06:31:44.794Z,87.35
2019-01-09T06:32:20.276Z,94.77
2019-01-09T06:32:55.651Z,86.85
2019-01-09T06:33:31.312Z,87.02
2019-01-09T06:34:06.826Z,84.15
2019-01-09T06:34:42.347Z,78.97
2019-01-09T06:35:18.025Z,86.32
2019-01-09T06:35:53.597Z,86.72
2019-01-09T06:36:29.161Z,87.57
2019-01-09T06:37:04.636Z,84.13
2019-01-09T06:37:40.034Z,86.05
2019-01-09T06:38:15.488Z,81.85
2019-01-09T06:38:50.909Z,83.12
2019-01-09T06:39:26.332Z,84.97
2019-01-09T06:40:02.100Z,85.28
2019-01-09T06:40:37.601Z,90.70
2019-01-09T06:41:13.209Z,76.97
2019-01-09T06:41:48.892Z,81.70
2019-01-09T06:42:24.625Z,72.20
2019-01-09T06:43:00.074Z,88.03
2019-01-09T06:43:35.474Z,83.47
2019-01-09T06:44:10.894Z,72.60
2019-01-09T06:44:46.498Z,82.35
2019-01-09T06:45:22.118Z,77.90
2019-01-09T06:45:57.825Z,78.25
2019-01-09T06:46:33.487Z,73.10
2019-01-09T06:47:09.190Z,75.78
2019-01-09T06:47:44.741Z,81.17
2019-01-09T06:48:20.283Z,81.40
2019-01-09T06:48:56.019Z,80.20
2019-01-09T06:49:32.011Z,82.60
2019-01-09T06:50:11.725Z,81.42
2019-01-09T06:50:47.204Z,84.50
2019-01-09T06:51:22.806Z,83.47
2019-01-09T06:51:58.166Z,83.05
2019-01-09T06:52:33.767Z,79.55
2019-01-09T06:53:09.365Z,83.55
2019-01-09T06:53:44.993Z,75.60
2019-01-09T06:54:20.539Z,78.97
2019-01-09T06:54:56.073Z,83.35
2019-01-09T06:55:32.122Z,87.10
2019-01-09T06:56:07.742Z,88.35
2019-01-09T06:56:43.288Z,80.35
2019-01-09T06:57:19.012Z,83.82
2019-01-09T06:57:54.589Z,86.57
2019-01-09T06:58:30.048Z,74.35
2019-01-09T06:59:05.595Z,82.82
2019-01-09T06:59:41.104Z,88.62
2019-01-09T07:00:16.617Z,85.03
2019-01-09T07:00:52.100Z,87.12
2019-01-09T07:01:27.622Z,81.60
2019-01-09T07:02:03.186Z,81.40
2019-01-09T07:02:39.186Z,91.60
2019-01-09T07:03:14.604Z,84.92
2019-01-09T07:03:50.149Z,81.12
2019-01-09T07:04:25.759Z,87.60
2019-01-09T07:05:01.210Z,85.22
2019-01-09T07:05:36.748Z,81.55
2019-01-09T07:06:12.393Z,87.42
2019-01-09T07:06:47.841Z,86.50
2019-01-09T07:07:23.357Z,76.92
2019-01-09T07:07:58.802Z,80.07
2019-01-09T07:08:34.856Z,83.65
2019-01-09T07:09:10.376Z,83.37
2019-01-09T07:09:45.924Z,84.20
2019-01-09T07:10:21.532Z,82.27
2019-01-09T07:10:57.195Z,86.65
2019-01-09T07:11:32.615Z,77.58
2019-01-09T07:12:08.139Z,72.82
2019-01-09T07:12:43.652Z,80.25
2019-01-09T07:13:19.268Z,75.10
2019-01-09T07:13:54.801Z,71.95
2019-01-09T07:14:30.379Z,69.85
2019-01-09T07:15:11.443Z,68.87
2019-01-09T07:15:43.397Z,63.40
2019-01-09T07:16:18.813Z,70.22
2019-01-09T07:16:54.369Z,69.80
2019-01-09T07:17:29.971Z,61.28
2019-01-09T07:18:05.587Z,72.05
2019-01-09T07:18:41.156Z,70.15
2019-01-09T07:19:16.554Z,67.67
2019-01-09T07:19:52.114Z,66.25
2019-01-09T07:20:27.806Z,70.12
2019-01-09T07:21:03.389Z,72.20
2019-01-09T07:21:45.405Z,71.53
2019-01-09T07:22:16.314Z,71.75
2019-01-09T07:22:51.694Z,74.47
2019-01-09T07:23:27.114Z,75.87
2019-01-09T07:24:02.560Z,73.85
2019-01-09T07:24:38.278Z,68.47
2019-01-09T07:25:13.799Z,76.33
2019-01-09T07:25:49.394Z,76.65
2019-01-09T07:26:25.178Z,71.55
2019-01-09T07:27:00.854Z,73.62
2019-01-09T07:27:36.381Z,73.42
2019-01-09T07:28:11.907Z,78.90
2019-01-09T07:28:47.465Z,74.85
2019-01-09T07:29:23.262Z,72.00
2019-01-09T07:29:58.877Z,74.17
2019-01-09T07:30:34.338Z,75.92
2019-01-09T07:31:09.796Z,84.30
2019-01-09T07:31:45.199Z,82.15
2019-01-09T07:32:20.820Z,79.45
2019-01-09T07:32:56.267Z,78.65
2019-01-09T07:33:32.331Z,76.10
2019-01-09T07:34:07.980Z,76.25
2019-01-09T07:34:43.480Z,78.25
2019-01-09T07:35:18.990Z,78.40
2019-01-09T07:35:54.459Z,81.97
2019-01-09T07:36:29.993Z,78.80
2019-01-09T07:37:05.550Z,77.03
2019-01-09T07:37:45.337Z,76.60
2019-01-09T07:38:18.440Z,73.05
2019-01-09T07:38:53.870Z,77.97
2019-01-09T07:39:29.390Z,76.45
2019-01-09T07:40:05.293Z,75.52
2019-01-09T07:40:41.030Z,78.47
2019-01-09T07:41:16.730Z,82.50
2019-01-09T07:41:52.349Z,75.52
2019-01-09T07:42:28.337Z,79.22
2019-01-09T07:43:04.053Z,81.12
2019-01-09T07:43:39.478Z,81.35
2019-01-09T07:44:14.829Z,79.72
2019-01-09T07:44:50.468Z,82.22
2019-01-09T07:45:25.974Z,78.33
2019-01-09T07:46:01.855Z,75.45
2019-01-09T07:46:39.606Z,74.87
2019-01-09T07:47:15.321Z,73.28
2019-01-09T07:47:50.854Z,77.97
2019-01-09T07:48:26.303Z,77.95
2019-01-09T07:49:01.851Z,73.47
2019-01-09T07:49:37.370Z,74.25
2019-01-09T07:50:13.326Z,77.60
2019-01-09T07:50:48.877Z,73.10
2019-01-09T07:51:24.459Z,70.57
2019-01-09T07:51:59.890Z,75.40
2019-01-09T07:52:35.450Z,76.17
2019-01-09T07:53:10.857Z,78.10
2019-01-09T07:53:46.306Z,77.42
2019-01-09T07:54:21.831Z,74.07
2019-01-09T07:54:57.387Z,72.37
2019-01-09T07:55:32.908Z,71.33
2019-01-09T07:56:08.459Z,68.07
2019-01-09T07:56:44.356Z,68.30
2019-01-09T07:57:20.383Z,65.67
2019-01-09T07:57:55.933Z,69.65
2019-01-09T07:58:31.458Z,70.00
2019-01-09T07:59:06.920Z,65.57
2019-01-09T07:59:42.442Z,67.35
2019-01-09T08:00:18.049Z,66.17
2019-01-09T08:00:53.601Z,63.48
2019-01-09T08:01:29.136Z,70.95
2019-01-09T08:02:05.015Z,70.37
2019-01-09T08:02:40.542Z,65.55
2019-01-09T08:03:16.068Z,69.20
2019-01-09T08:03:51.697Z,68.85
2019-01-09T08:04:27.216Z,65.92
2019-01-09T08:05:02.977Z,64.70
2019-01-09T08:05:38.759Z,69.15
2019-01-09T08:06:14.487Z,69.62
2019-01-09T08:06:50.158Z,67.87
2019-01-09T08:07:25.655Z,67.25
2019-01-09T08:08:01.158Z,71.87
2019-01-09T08:08:36.681Z,61.68
2019-01-09T08:09:12.325Z,68.85
2019-01-09T08:09:48.039Z,66.53
2019-01-09T08:10:24.019Z,61.77
2019-01-09T08:10:59.512Z,67.40
2019-01-09T08:11:35.054Z,67.65
2019-01-09T08:12:10.577Z,62.05
2019-01-09T08:12:46.324Z,63.52
2019-01-09T08:13:21.949Z,71.07
2019-01-09T08:13:57.757Z,64.85
2019-01-09T08:14:33.198Z,63.10
2019-01-09T08:15:09.314Z,64.27
2019-01-09T08:15:44.753Z,59.48
2019-01-09T08:16:20.326Z,62.55
2019-01-09T08:16:56.059Z,63.68
2019-01-09T08:17:32.124Z,61.10
2019-01-09T08:18:07.975Z,65.55
2019-01-09T08:18:43.387Z,65.22
2019-01-09T08:19:18.891Z,62.95
2019-01-09T08:19:54.445Z,61.68
2019-01-09T08:20:30.110Z,63.45
2019-01-09T08:21:05.860Z,66.97
2019-01-09T08:21:41.554Z,63.08
2019-01-09T08:22:17.196Z,71.62
2019-01-09T08:22:52.717Z,65.05
2019-01-09T08:23:28.304Z,66.02
2019-01-09T08:24:03.980Z,64.92
2019-01-09T08:24:39.979Z,63.33
2019-01-09T08:25:15.475Z,61.42
2019-01-09T08:25:51.040Z,63.02